Warning: Javascript must be enabled to use all the features on this page!


Page Loading - Please Wait...

Click to hideNews Bulletins

Peak Streamflow for the Nation

USGS 07249985 Lee Creek near Short, OK

Sequoyah County, Oklahoma
Hydrologic Unit Code 11110104
Latitude  35°31'02", Longitude  94°27'51" NAD83
Drainage area 420  square miles
Output formats
Table
Graph
Tab-separated file
peakfq (watstore) format
Reselect output format
Water
Year
Date Gage
Height
(feet)
Stream-
flow
(cfs)
1931 1931-02-08 20.50 27,500
1932 1932-01-16 18.10 23,000
1933 1933-05-14 22.30 32,000
1934 1934-09-02 13.30 13,600
1935 1935-06-17 27.00 57,300
1936 1935-12-06 14.80 15,000
1943 1943-05-10 27.00 57,300
1945 1945-04-15 35.00 111,000
1950 1950-05-10 27.20 58,500
1951 1951-07-02 19.46 24,800
1952 1952-04-12 15.02 14,900
1953 1953-03-18 17.24 19,400
1954 1954-05-02 15.34 15,500
1955 1955-02-20 18.54 22,300
1956 1956-04-29 14.02 12,900
1957 1957-04-03 29.37 72,700
1958 1958-07-13 22.32 35,600
1959 1959-03-05 16.70 21,000
1960 1960-05-06 30.30 80,000
1961 1961-05-05 21.38 32,500
1962 1961-11-22 12.33 11,200
1963 1963-04-27 7.89 5,160
1964 1964-05-11 15.72 17,900
1965 1965-05-09 11.17 9,370
1966 1966-02-09 25.38 49,300
1967 1967-05-06 11.25 9,450
1968 1968-03-20 16.81 20,300
1969 1968-12-27 16.32 19,200
1970 1969-10-13 17.70 22,200
1971 1970-10-27 20.57 29,800
1972 1971-12-10 22.71 37,200
1973 1973-04-22 23.89 42,300
1974 1973-11-24 29.36 72,700
1975 1974-11-04 20.50 29,600
1976 1976-04-20 22.48 36,900
1977 1977-03-27 20.54 30,000
1978 1978-03-24 18.93 25,300
1979 1979-04-11 15.61 17,700
1980 1980-03-24 6.68 3,830
1981 1981-05-31 14.37 15,100
1982 1982-01-31 18.64 24,600
1983 1982-12-03 12.88 12,200
1984 1984-05-07 11.61 10,100
1985 1985-03-30 20.01 28,200
1986 1985-11-19 25.95 52,400
1987 1986-10-01 21.71 34,100
1988 1987-12-25 17.97 20,300
1989 1989-02-13 20.07 28,400
1990 1990-05-03 27.16 41,500
1991 1991-04-14 12.46 10,500
1992 1991-11-01 10.01 7,210
1993 1993-04-14 17.963 31,400
1994 1994-02-22 10.60 9,800
1995 1995-05-08 15.99 24,100
1996 1996-04-22 13.28 17,500
1997 1997-02-21 21.12 45,200
1998 1998-01-04 18.77 35,700
1999 1999-06-30 13.64 18,500
2000 2000-06-21 27.24 74,800
2001 2001-02-24 11.96 14,600
2002 2002-04-08 19.36 38,800
2003 2003-05-17 11.49 13,300
2004 2004-04-24 27.77 82,400
2005 2005-01-04 14.14 19,800
2006 2006-05-04 14.13 19,700
2007 2007-01-13 16.80 27,900
2008 2008-04-10 23.19 55,700
2009 2009-09-22 14.082 21,600
2010 2010-09-09 21.28 49,200
2011 2011-04-26 26.08 70,100
2012 2012-03-20 12.51 16,700
2013 2013-05-22 10.41 10,600
2014 2013-12-21 7.97 5,130
2015 2015-05-10 20.06 44,000
2016 2015-12-28 24.79 64,300
2017 2017-04-30 18.18 36,400
2018 2018-03-27 15.46 26,300
2019 2019-06-23 18.72 38,500
2020 2020-01-11 13.95 21,100
?
  Peak Gage-Height Qualification Codes.